Red Canyon, Utah
Current Conditions -  °F | °C
As of 2:37 PM on Wednesday 17 Dec 2014 (Local Time) from KBCE Reporting Station
Overcast Overcast  
Wind Chill: 24°   Ceiling: 3000
Heat Index: 32°   Visibility: 8mi
Dew Point: 26°   Wind: 9mph
Humidity: 79%   Direction: 290°WNW
Pressure: 29.95"   Gusts: NA
Location:  37.74°N, 112.34°W
Report Text: KBCE 172137Z AUTO 29008KT 8SM BKN030 OVC038 00/M03 A2995 RMK AO2 SNE24 P0000 T00001033
Loading
Personal Weather Stations






























Interactive Weather Map New forecast layout! Learn more

10-Day Weather Forecast

Advertisements
Track Severe Weather on mobile